Time;durP1;ratioP1;P1;durP2;ratioP2;P2;SDS_P1;SDS_P2;PMS_P1;PMS_P2;Temp;Humidity;BMP_temperature;BMP_pressure;BME280_temperature;BME280_humidity;BME280_pressure;Samples;Min_cycle;Max_cycle;Signal;HPM_P1;HPM_P2
2022/07/16 00:03:28;;;;;;;1.80;1.27;;;14.20;99.90;;;;;;5105922;28;20027;-78
2022/07/16 00:05:54;;;;;;;0.65;0.65;;;14.10;99.90;;;;;;5105700;28;20036;-75
2022/07/16 00:08:21;;;;;;;0.82;0.82;;;14.10;99.90;;;;;;5106293;28;20028;-75
2022/07/16 00:10:46;;;;;;;0.85;0.80;;;14.10;99.90;;;;;;5106352;28;20075;-76
2022/07/16 00:13:12;;;;;;;2.55;1.35;;;14.00;99.90;;;;;;5104023;28;20046;-75
2022/07/16 00:15:38;;;;;;;0.70;0.70;;;14.00;99.90;;;;;;5102310;28;20024;-75
2022/07/16 00:20:49;;;;;;;0.55;0.55;;;14.00;99.90;;;;;;5101631;28;20035;-77
2022/07/16 00:23:16;;;;;;;0.70;0.70;;;14.10;99.90;;;;;;5102206;28;20028;-75
2022/07/16 00:25:42;;;;;;;1.27;0.98;;;14.20;99.90;;;;;;5101827;28;20020;-75
2022/07/16 00:28:08;;;;;;;0.82;0.60;;;14.70;99.90;;;;;;5101720;28;20024;-75
2022/07/16 00:30:34;;;;;;;0.55;0.55;;;14.80;99.90;;;;;;5100556;28;20049;-79
2022/07/16 00:32:59;;;;;;;0.65;0.50;;;15.00;99.90;;;;;;5098496;28;20025;-76
2022/07/16 00:35:27;;;;;;;0.50;0.50;;;15.10;99.90;;;;;;5097018;28;20451;-75
2022/07/16 00:37:53;;;;;;;0.60;0.60;;;15.10;99.90;;;;;;5093573;28;20121;-76
2022/07/16 00:40:19;;;;;;;0.50;0.50;;;15.10;99.90;;;;;;5093857;28;20036;-76
2022/07/16 00:42:45;;;;;;;3.47;1.10;;;15.10;99.90;;;;;;5076928;28;20023;-75
2022/07/16 00:45:11;;;;;;;2.05;1.10;;;15.00;99.90;;;;;;5094474;28;20022;-75
2022/07/16 00:47:36;;;;;;;5.68;1.90;;;14.90;99.90;;;;;;5094076;28;20364;-75
2022/07/16 00:50:02;;;;;;;1.15;0.73;;;14.80;99.90;;;;;;5076458;28;20023;-75
2022/07/16 00:52:28;;;;;;;0.98;0.98;;;14.70;99.90;;;;;;5099915;28;20051;-76
2022/07/16 00:54:54;;;;;;;2.15;0.88;;;14.70;99.90;;;;;;5081788;28;20020;-75
2022/07/16 00:57:20;;;;;;;0.57;0.57;;;14.60;99.90;;;;;;5078030;28;20024;-79
2022/07/16 00:59:45;;;;;;;0.45;0.38;;;14.60;99.90;;;;;;5077311;28;20032;-75
2022/07/16 01:02:11;;;;;;;1.23;1.13;;;14.50;99.90;;;;;;5076455;28;20016;-75
2022/07/16 01:04:37;;;;;;;1.05;1.00;;;14.60;99.90;;;;;;5076893;28;20027;-77
2022/07/16 01:07:03;;;;;;;0.70;0.70;;;14.60;99.90;;;;;;5076879;28;20016;-76
2022/07/16 01:09:31;;;;;;;1.58;1.27;;;14.70;99.90;;;;;;5076752;28;20043;-75
2022/07/16 01:11:57;;;;;;;2.30;1.40;;;14.60;99.90;;;;;;5098028;28;20016;-76
2022/07/16 01:14:24;;;;;;;1.98;1.30;;;14.80;99.90;;;;;;5099532;28;20476;-76
2022/07/16 01:16:51;;;;;;;1.38;1.30;;;14.90;99.90;;;;;;5097577;28;20016;-75
2022/07/16 01:19:17;;;;;;;1.77;0.68;;;15.10;99.90;;;;;;5094657;28;20075;-75
2022/07/16 01:21:43;;;;;;;0.80;0.80;;;15.10;99.90;;;;;;5094277;28;20575;-75
2022/07/16 01:24:09;;;;;;;0.80;0.65;;;15.00;99.90;;;;;;5095042;28;20028;-75
2022/07/16 01:26:39;;;;;;;0.57;0.57;;;14.90;99.90;;;;;;5097887;28;20020;-74
2022/07/16 01:29:05;;;;;;;1.75;1.13;;;14.80;99.90;;;;;;5099407;28;20054;-75
2022/07/16 01:31:31;;;;;;;0.70;0.70;;;14.80;99.90;;;;;;5083936;28;20020;-75
2022/07/16 01:36:56;;;;;;;1.90;0.90;;;14.80;99.90;;;;;;5099733;28;20073;-75
2022/07/16 01:39:23;;;;;;;0.95;0.95;;;14.80;99.90;;;;;;5098549;28;20028;-76
2022/07/16 01:41:51;;;;;;;1.35;0.70;;;14.90;99.90;;;;;;5097526;28;20427;-75
2022/07/16 01:44:17;;;;;;;1.17;0.60;;;14.80;99.90;;;;;;5097927;28;20515;-77
2022/07/16 01:46:42;;;;;;;0.90;0.75;;;14.80;99.90;;;;;;5098182;28;20032;-75
2022/07/16 01:49:08;;;;;;;1.17;1.13;;;14.80;99.90;;;;;;5099075;28;20024;-76
2022/07/16 01:51:33;;;;;;;2.70;1.05;;;14.60;99.90;;;;;;5097799;28;20027;-75
2022/07/16 01:53:59;;;;;;;2.42;0.60;;;14.60;99.90;;;;;;5097667;28;20040;-75
2022/07/16 01:56:25;;;;;;;2.90;1.45;;;14.50;99.90;;;;;;5100967;28;20053;-76
2022/07/16 01:58:51;;;;;;;0.73;0.73;;;14.50;99.90;;;;;;5101538;28;20032;-75
2022/07/16 02:01:16;;;;;;;0.90;0.90;;;14.50;99.90;;;;;;5102291;28;20073;-75
2022/07/16 02:03:42;;;;;;;1.77;1.00;;;14.50;99.90;;;;;;5080932;28;20472;-78
2022/07/16 02:06:08;;;;;;;1.25;0.90;;;14.40;99.90;;;;;;5099605;28;20024;-76
2022/07/16 02:08:33;;;;;;;0.90;0.90;;;14.30;99.90;;;;;;5102334;28;20518;-75
2022/07/16 02:10:59;;;;;;;0.80;0.80;;;14.20;99.90;;;;;;5101479;28;20019;-76
2022/07/16 02:13:24;;;;;;;1.55;1.02;;;14.10;99.90;;;;;;5101774;28;20028;-76
2022/07/16 02:15:50;;;;;;;0.85;0.85;;;13.90;99.90;;;;;;5083926;28;20028;-76
2022/07/16 02:18:16;;;;;;;1.05;1.05;;;13.80;99.90;;;;;;5109182;28;20073;-77
2022/07/16 02:20:41;;;;;;;1.90;1.30;;;13.70;99.90;;;;;;5107900;28;20389;-78
2022/07/16 02:23:07;;;;;;;1.45;0.70;;;13.60;99.90;;;;;;5108806;28;20028;-77
2022/07/16 02:25:33;;;;;;;0.77;0.77;;;13.50;99.90;;;;;;5109528;28;20024;-78
2022/07/16 02:28:06;;;;;;;0.63;0.60;;;13.50;99.90;;;;;;5091306;28;20373;-76
2022/07/16 02:30:56;;;;;;;1.33;0.88;;;13.40;99.90;;;;;;5109826;28;20024;-79
2022/07/16 02:33:22;;;;;;;1.50;1.40;;;13.30;99.90;;;;;;5102831;28;20043;-75
2022/07/16 02:35:48;;;;;;;1.67;0.82;;;13.20;99.90;;;;;;5102153;28;20029;-75
2022/07/16 02:38:15;;;;;;;1.13;1.10;;;13.20;99.90;;;;;;5067161;28;20035;-75
2022/07/16 02:40:42;;;;;;;0.80;0.77;;;13.10;99.90;;;;;;5100138;28;20139;-75
2022/07/16 02:43:09;;;;;;;0.60;0.60;;;13.10;99.90;;;;;;5083373;28;20020;-75
2022/07/16 02:45:39;;;;;;;1.88;0.95;;;13.00;99.90;;;;;;5101595;28;20024;-75
2022/07/16 02:48:05;;;;;;;;;;;12.90;99.90;;;;;;5102482;28;20023;-75
2022/07/16 02:50:31;;;;;;;0.90;0.60;;;12.90;99.90;;;;;;5101320;28;20336;-75
2022/07/16 02:52:57;;;;;;;1.90;1.45;;;12.80;99.90;;;;;;5101292;28;20488;-75
2022/07/16 02:55:23;;;;;;;1.10;1.05;;;12.70;99.90;;;;;;5098575;28;20024;-75
2022/07/16 02:57:49;;;;;;;1.95;0.68;;;12.70;99.90;;;;;;5100688;28;20031;-75
2022/07/16 03:00:16;;;;;;;0.60;0.60;;;12.70;99.90;;;;;;5099553;28;20032;-79
2022/07/16 03:02:42;;;;;;;1.02;0.80;;;12.70;99.90;;;;;;5080087;28;20024;-75
2022/07/16 03:05:09;;;;;;;6.43;1.02;;;12.70;99.90;;;;;;5079634;28;20024;-75
2022/07/16 03:07:37;;;;;;;1.48;0.90;;;12.70;99.90;;;;;;5098342;28;20016;-75
2022/07/16 03:10:05;;;;;;;5.53;2.22;;;12.60;99.90;;;;;;5098932;28;20028;-78
2022/07/16 03:12:30;;;;;;;0.88;0.80;;;12.50;99.90;;;;;;5100573;28;20020;-75
2022/07/16 03:14:57;;;;;;;1.33;0.80;;;12.50;99.90;;;;;;5101060;28;20035;-75
2022/07/16 03:17:23;;;;;;;0.65;0.65;;;12.50;99.90;;;;;;5099333;28;20020;-75
2022/07/16 03:19:50;;;;;;;5.40;2.05;;;12.50;99.90;;;;;;5063638;28;20036;-76
2022/07/16 03:22:17;;;;;;;2.15;1.00;;;12.50;99.90;;;;;;5098315;28;20031;-77
2022/07/16 03:24:43;;;;;;;3.58;1.25;;;12.60;99.90;;;;;;5098252;28;20031;-76
2022/07/16 03:27:10;;;;;;;0.63;0.63;;;12.60;99.90;;;;;;5082466;28;20024;-75
2022/07/16 03:29:36;;;;;;;1.20;1.15;;;12.50;99.90;;;;;;5083367;28;20050;-75
2022/07/16 03:32:02;;;;;;;1.02;0.60;;;12.40;99.90;;;;;;5099318;28;20381;-75
2022/07/16 03:34:28;;;;;;;0.88;0.88;;;12.30;99.90;;;;;;5098044;28;20024;-75
2022/07/16 03:36:54;;;;;;;1.33;1.23;;;12.30;99.90;;;;;;5097876;28;20154;-75
2022/07/16 03:39:19;;;;;;;1.85;1.67;;;12.30;99.90;;;;;;5098563;28;20074;-75
2022/07/16 03:41:45;;;;;;;1.25;0.63;;;12.30;99.90;;;;;;5079551;28;20020;-76
2022/07/16 03:44:12;;;;;;;1.10;0.63;;;12.40;99.90;;;;;;5098378;28;20020;-75
2022/07/16 03:46:38;;;;;;;0.82;0.75;;;12.30;99.90;;;;;;5098137;28;20017;-75
2022/07/16 03:49:05;;;;;;;1.27;1.17;;;12.30;99.90;;;;;;5081271;28;20024;-75
2022/07/16 03:51:31;;;;;;;0.85;0.85;;;12.20;99.90;;;;;;5100701;28;20012;-76
2022/07/16 03:53:57;;;;;;;2.30;0.70;;;12.20;99.90;;;;;;5098464;28;20044;-75
2022/07/16 03:56:24;;;;;;;2.72;1.75;;;12.20;99.90;;;;;;5098071;28;20027;-76
2022/07/16 03:58:50;;;;;;;0.60;0.60;;;12.20;99.90;;;;;;5079860;28;20027;-75
2022/07/16 04:01:15;;;;;;;0.68;0.68;;;12.20;99.90;;;;;;5099793;28;20025;-76
2022/07/16 04:03:41;;;;;;;1.13;0.90;;;12.10;99.90;;;;;;5085210;28;20023;-78
2022/07/16 04:06:07;;;;;;;1.23;0.93;;;12.10;99.90;;;;;;5103625;28;20024;-75
2022/07/16 04:08:33;;;;;;;2.00;1.20;;;12.00;99.90;;;;;;5103451;28;20024;-76
2022/07/16 04:11:00;;;;;;;1.02;1.02;;;11.90;99.90;;;;;;5084513;28;20028;-78
2022/07/16 04:13:26;;;;;;;0.80;0.80;;;11.90;99.90;;;;;;5084671;28;20024;-76
2022/07/16 04:15:54;;;;;;;1.70;1.60;;;11.90;99.90;;;;;;5102295;28;20112;-75
2022/07/16 04:18:22;;;;;;;1.35;1.02;;;11.80;99.90;;;;;;5084888;28;20028;-76
2022/07/16 04:20:48;;;;;;;0.65;0.65;;;12.00;99.90;;;;;;5102825;28;20047;-76
2022/07/16 04:23:14;;;;;;;0.77;0.73;;;12.00;99.90;;;;;;5083938;28;20025;-75
2022/07/16 04:25:40;;;;;;;26.80;2.50;;;12.00;99.90;;;;;;5103171;28;20035;-75
2022/07/16 04:28:06;;;;;;;0.80;0.80;;;12.00;99.90;;;;;;5084731;28;20020;-75
2022/07/16 04:30:32;;;;;;;0.70;0.70;;;12.10;99.90;;;;;;5103280;28;20083;-77
2022/07/16 04:32:58;;;;;;;1.63;0.85;;;12.20;99.90;;;;;;5101346;28;20365;-77
2022/07/16 04:35:23;;;;;;;0.82;0.82;;;12.30;99.90;;;;;;5084228;28;20039;-75
2022/07/16 04:37:49;;;;;;;0.57;0.50;;;12.40;99.90;;;;;;5082647;28;20020;-77
2022/07/16 04:40:15;;;;;;;1.02;0.95;;;12.40;99.90;;;;;;5100507;28;20058;-76
2022/07/16 04:42:43;;;;;;;1.80;0.70;;;12.50;99.90;;;;;;5082157;28;20022;-75
2022/07/16 04:45:10;;;;;;;0.70;0.70;;;12.50;99.90;;;;;;5084102;28;20048;-76
2022/07/16 04:47:35;;;;;;;0.85;0.85;;;12.60;99.90;;;;;;5084118;28;20500;-76
2022/07/16 04:50:01;;;;;;;0.75;0.75;;;12.70;99.90;;;;;;5084314;28;20070;-77
2022/07/16 04:52:27;;;;;;;1.05;1.05;;;12.90;99.90;;;;;;5102292;28;20032;-78
2022/07/16 04:54:53;;;;;;;0.85;0.85;;;13.10;99.90;;;;;;5102561;28;20032;-75
2022/07/16 04:57:18;;;;;;;0.65;0.65;;;13.30;99.90;;;;;;5084107;28;20020;-75
2022/07/16 04:59:44;;;;;;;1.25;1.15;;;13.40;99.90;;;;;;5102041;28;20036;-76
2022/07/16 05:04:54;;;;;;;1.80;0.90;;;13.80;99.90;;;;;;5107059;28;20049;-75
2022/07/16 05:07:20;;;;;;;0.25;0.25;;;14.00;99.90;;;;;;5099950;28;20028;-75
2022/07/16 05:09:46;;;;;;;0.70;0.70;;;14.00;99.90;;;;;;5095330;28;20048;-75
2022/07/16 05:12:12;;;;;;;0.60;0.60;;;14.00;99.90;;;;;;5096588;28;20020;-76
2022/07/16 05:14:38;;;;;;;0.50;0.50;;;14.20;99.90;;;;;;5096259;28;20495;-75
2022/07/16 05:17:03;;;;;;;1.73;0.50;;;14.20;99.90;;;;;;5101666;28;20016;-75
2022/07/16 05:19:29;;;;;;;0.60;0.60;;;14.20;99.90;;;;;;5082233;28;20039;-77
2022/07/16 05:21:55;;;;;;;1.25;1.13;;;14.30;99.90;;;;;;5077172;28;20498;-76
2022/07/16 05:24:20;;;;;;;2.05;0.93;;;14.40;99.90;;;;;;5076520;28;20024;-75
2022/07/16 05:26:49;;;;;;;0.80;0.80;;;14.50;99.90;;;;;;5078831;28;20024;-77
2022/07/16 05:29:15;;;;;;;1.27;1.00;;;14.60;99.90;;;;;;5095246;28;20020;-75
2022/07/16 05:31:40;;;;;;;1.23;1.13;;;14.70;99.90;;;;;;5093993;28;20101;-75
2022/07/16 05:34:06;;;;;;;0.90;0.90;;;14.80;99.90;;;;;;5094955;28;20044;-76
2022/07/16 05:36:32;;;;;;;0.63;0.63;;;14.90;99.90;;;;;;5097386;28;20515;-75
2022/07/16 05:38:58;;;;;;;1.20;0.77;;;15.10;99.90;;;;;;5099280;28;20024;-75
2022/07/16 05:41:23;;;;;;;0.47;0.47;;;15.20;99.90;;;;;;5100162;28;20043;-75
2022/07/16 05:43:49;;;;;;;0.77;0.77;;;15.30;99.90;;;;;;5099357;28;20465;-75
2022/07/16 05:46:15;;;;;;;4.70;1.35;;;15.30;99.90;;;;;;5081201;28;20030;-75
2022/07/16 05:48:40;;;;;;;1.80;0.93;;;15.50;99.90;;;;;;5098859;28;20053;-75
2022/07/16 05:51:06;;;;;;;3.00;0.80;;;15.50;99.90;;;;;;5098635;28;20031;-75
2022/07/16 05:53:32;;;;;;;6.35;0.80;;;15.60;99.90;;;;;;5099273;28;20044;-75
2022/07/16 05:55:59;;;;;;;1.08;1.08;;;15.70;99.90;;;;;;5081179;28;20400;-76
2022/07/16 05:58:25;;;;;;;0.70;0.70;;;15.70;99.90;;;;;;5098782;28;20091;-75
2022/07/16 06:00:51;;;;;;;1.58;1.10;;;15.70;99.90;;;;;;5100208;28;20060;-75
2022/07/16 06:03:16;;;;;;;0.60;0.60;;;15.80;99.90;;;;;;5081752;28;20031;-75
2022/07/16 06:05:42;;;;;;;1.98;1.30;;;15.80;99.90;;;;;;5081444;28;20028;-76
2022/07/16 06:08:08;;;;;;;2.15;0.60;;;16.00;99.90;;;;;;5099210;28;20032;-74
2022/07/16 06:10:33;;;;;;;1.70;0.82;;;16.10;99.90;;;;;;5098892;28;20028;-75
2022/07/16 06:12:59;;;;;;;2.05;0.40;;;16.10;99.90;;;;;;5099727;28;20028;-76
2022/07/16 06:15:25;;;;;;;0.45;0.45;;;16.20;99.90;;;;;;5099406;28;20111;-75
2022/07/16 06:17:50;;;;;;;0.85;0.85;;;16.40;99.90;;;;;;5101457;28;20028;-75
2022/07/16 06:20:16;;;;;;;0.40;0.40;;;16.50;99.90;;;;;;5082435;28;20040;-75
2022/07/16 06:22:42;;;;;;;1.45;1.30;;;16.60;99.90;;;;;;5101748;28;20096;-76
2022/07/16 06:25:08;;;;;;;0.77;0.57;;;16.80;99.90;;;;;;5083811;28;20032;-75
2022/07/16 06:27:33;;;;;;;0.98;0.60;;;16.80;99.90;;;;;;5102577;28;20023;-77
2022/07/16 06:30:05;;;;;;;0.55;0.43;;;16.80;99.90;;;;;;5102844;28;20024;-75
2022/07/16 06:32:32;;;;;;;1.85;0.77;;;16.90;99.90;;;;;;5084129;28;20111;-75
2022/07/16 06:34:57;;;;;;;0.50;0.50;;;16.80;99.90;;;;;;5102230;28;20025;-75
2022/07/16 06:37:23;;;;;;;1.05;1.05;;;16.80;99.90;;;;;;5082646;28;20016;-75
2022/07/16 06:39:49;;;;;;;7.90;1.92;;;16.70;99.90;;;;;;5082161;28;20028;-75
2022/07/16 06:42:14;;;;;;;1.27;0.90;;;16.70;99.90;;;;;;5080872;28;20543;-76
2022/07/16 06:44:40;;;;;;;1.33;0.93;;;16.80;99.90;;;;;;5095864;28;20058;-75
2022/07/16 06:47:06;;;;;;;1.65;1.42;;;17.60;99.90;;;;;;5095788;28;20016;-75
2022/07/16 06:49:32;;;;;;;0.63;0.60;;;18.20;99.90;;;;;;5095787;28;20031;-78
2022/07/16 06:51:58;;;;;;;0.40;0.40;;;19.30;96.70;;;;;;5077873;28;20028;-75
2022/07/16 06:54:24;;;;;;;0.70;0.70;;;20.50;88.60;;;;;;5096130;28;20024;-76
2022/07/16 06:56:49;;;;;;;0.50;0.45;;;21.30;78.00;;;;;;5098947;28;20024;-76
2022/07/16 06:59:15;;;;;;;48.22;2.67;;;21.90;71.10;;;;;;5097402;28;20040;-78
2022/07/16 07:01:41;;;;;;;0.70;0.70;;;22.70;68.10;;;;;;5077479;28;20027;-78
2022/07/16 07:04:06;;;;;;;0.40;0.40;;;23.40;65.90;;;;;;5095367;28;20024;-75
2022/07/16 07:06:32;;;;;;;1.63;1.52;;;23.50;63.00;;;;;;5079011;28;20047;-74
2022/07/16 07:08:58;;;;;;;3.38;0.50;;;23.40;62.80;;;;;;5077209;28;20499;-76
2022/07/16 07:11:23;;;;;;;0.57;0.50;;;24.20;61.70;;;;;;5095526;28;20020;-75
2022/07/16 07:13:49;;;;;;;1.60;0.95;;;24.70;59.40;;;;;;5095947;28;20028;-75
2022/07/16 07:16:16;;;;;;;0.93;0.93;;;24.00;60.00;;;;;;5100125;28;20035;-79
2022/07/16 07:18:41;;;;;;;0.40;0.40;;;23.60;60.20;;;;;;5077148;28;20024;-80
2022/07/16 07:21:07;;;;;;;0.93;0.93;;;24.40;60.10;;;;;;5077065;28;20062;-80
2022/07/16 07:23:33;;;;;;;0.43;0.43;;;24.70;58.10;;;;;;5076985;28;20070;-81
2022/07/16 07:25:59;;;;;;;0.75;0.50;;;25.10;57.80;;;;;;5095042;28;20031;-80
2022/07/16 07:28:24;;;;;;;0.90;0.73;;;25.40;57.60;;;;;;5076389;28;20016;-83
2022/07/16 07:30:50;;;;;;;0.63;0.55;;;26.20;55.80;;;;;;5095240;28;20028;-79
2022/07/16 07:33:16;;;;;;;0.75;0.43;;;26.60;55.10;;;;;;5095402;28;20377;-74
2022/07/16 07:35:42;;;;;;;2.55;1.27;;;26.60;54.20;;;;;;5095124;28;20024;-78
2022/07/16 07:38:08;;;;;;;1.08;0.50;;;26.50;54.40;;;;;;5095026;28;20051;-75
2022/07/16 07:40:33;;;;;;;0.50;0.40;;;26.30;54.80;;;;;;5094646;28;20066;-76
2022/07/16 07:42:59;;;;;;;0.95;0.93;;;26.00;54.70;;;;;;5094798;28;20029;-75
2022/07/16 07:45:26;;;;;;;0.60;0.60;;;24.80;56.90;;;;;;5076789;28;20028;-75
2022/07/16 07:47:52;;;;;;;1.20;1.10;;;24.00;57.50;;;;;;5094652;28;20473;-75
2022/07/16 07:50:17;;;;;;;0.82;0.50;;;24.60;59.60;;;;;;5094692;28;20039;-78
2022/07/16 07:52:43;;;;;;;1.45;0.75;;;25.00;56.90;;;;;;5094354;28;20052;-76
2022/07/16 07:55:09;;;;;;;0.85;0.77;;;26.10;55.50;;;;;;5094564;28;20028;-75
2022/07/16 07:57:34;;;;;;;2.58;0.80;;;26.10;54.90;;;;;;5094475;28;20103;-76
2022/07/16 08:00:00;;;;;;;0.70;0.70;;;25.40;56.00;;;;;;5094202;28;20032;-75
2022/07/16 08:02:26;;;;;;;1.05;0.60;;;25.30;56.00;;;;;;5094379;28;20020;-75
2022/07/16 08:04:52;;;;;;;0.70;0.70;;;26.00;55.30;;;;;;5094431;28;20024;-75
2022/07/16 08:07:18;;;;;;;0.65;0.65;;;26.50;55.50;;;;;;5094378;28;20465;-75
2022/07/16 08:09:44;;;;;;;3.05;0.73;;;26.90;54.40;;;;;;5094302;28;20048;-75
2022/07/16 08:12:10;;;;;;;0.60;0.50;;;26.10;53.70;;;;;;5076051;28;20059;-75
2022/07/16 08:14:36;;;;;;;1.08;0.65;;;26.00;55.90;;;;;;5094189;28;20020;-74
2022/07/16 08:17:03;;;;;;;0.40;0.35;;;26.30;54.80;;;;;;5076148;28;20498;-77
2022/07/16 08:19:30;;;;;;;0.40;0.40;;;26.80;54.10;;;;;;5093939;28;20093;-77
2022/07/16 08:21:56;;;;;;;0.60;0.60;;;26.10;54.40;;;;;;5076005;28;20106;-80
2022/07/16 08:27:06;;;;;;;1.63;1.30;;;25.80;55.20;;;;;;5094705;28;20442;-75
2022/07/16 08:29:32;;;;;;;0.55;0.52;;;25.20;56.70;;;;;;5075892;28;20035;-78
2022/07/16 08:31:58;;;;;;;0.60;0.60;;;25.40;56.90;;;;;;5093691;28;20440;-77
2022/07/16 08:34:24;;;;;;;0.30;0.30;;;25.80;56.50;;;;;;5093833;28;20028;-79
2022/07/16 08:36:51;;;;;;;1.45;0.77;;;25.30;56.00;;;;;;5095866;28;20464;-78
2022/07/16 08:39:18;;;;;;;1.20;1.05;;;24.90;57.00;;;;;;5096047;28;20044;-77
2022/07/16 08:41:44;;;;;;;0.80;0.80;;;25.00;58.20;;;;;;5075477;28;20027;-77
2022/07/16 08:44:12;;;;;;;0.70;0.70;;;25.10;56.40;;;;;;5093765;28;20096;-79
2022/07/16 08:46:38;;;;;;;0.88;0.80;;;25.90;55.80;;;;;;5075487;28;20085;-78
2022/07/16 08:49:04;;;;;;;2.15;1.38;;;26.30;56.10;;;;;;5093564;28;20033;-77
2022/07/16 08:51:35;;;;;;;0.95;0.77;;;25.70;55.70;;;;;;5075327;28;20031;-76
2022/07/16 08:54:06;;;;;;;5.78;1.13;;;26.10;56.10;;;;;;5093209;28;20071;-77
2022/07/16 08:56:34;;;;;;;2.28;1.20;;;26.20;56.60;;;;;;5093497;28;20016;-77
2022/07/16 08:59:01;;;;;;;1.35;0.95;;;26.00;56.50;;;;;;5093440;28;20020;-77
2022/07/16 09:01:29;;;;;;;1.95;0.50;;;25.90;56.20;;;;;;5093622;28;20096;-77
2022/07/16 09:03:58;;;;;;;1.27;1.15;;;25.40;56.70;;;;;;5093442;28;20464;-76
2022/07/16 09:06:27;;;;;;;;;;;25.30;56.50;;;;;;5098343;28;20476;-74
2022/07/16 09:08:53;;;;;;;0.68;0.68;;;25.30;57.60;;;;;;5093341;28;19904;-75
2022/07/16 09:11:22;;;;;;;0.75;0.75;;;25.50;56.60;;;;;;5093247;28;20547;-75
2022/07/16 09:14:10;;;;;;;5.13;1.33;;;25.40;55.10;;;;;;5074970;28;20028;-74
2022/07/16 09:16:51;;;;;;;0.40;0.40;;;26.10;55.90;;;;;;5075058;28;20055;-74
2022/07/16 09:19:27;;;;;;;0.63;0.63;;;26.70;53.80;;;;;;5093311;28;20085;-76
2022/07/16 09:22:03;;;;;;;0.38;0.38;;;26.50;54.50;;;;;;5075197;28;20068;-80
2022/07/16 09:24:45;;;;;;;0.35;0.35;;;26.00;55.20;;;;;;5095647;28;20047;-79
2022/07/16 09:27:22;;;;;;;0.65;0.50;;;25.30;56.30;;;;;;5074924;28;20111;-76
2022/07/16 09:30:05;;;;;;;3.03;0.70;;;25.40;55.70;;;;;;5074770;28;20028;-77
2022/07/16 09:32:36;;;;;;;0.70;0.70;;;25.40;55.90;;;;;;5070240;28;20122;-75
2022/07/16 09:35:11;;;;;;;2.15;1.38;;;25.50;55.70;;;;;;5093140;28;20099;-84
2022/07/16 09:37:59;;;;;;;0.82;0.73;;;25.70;54.70;;;;;;5093432;28;20024;-79
2022/07/16 09:40:42;;;;;;;0.68;0.68;;;25.60;54.80;;;;;;5075434;28;20495;-85
2022/07/16 09:43:14;;;;;;;4.07;0.77;;;25.50;55.80;;;;;;5088290;28;20032;-79
2022/07/16 09:45:41;;;;;;;2.30;0.40;;;25.60;54.40;;;;;;5093232;28;20022;-76
2022/07/16 09:48:22;;;;;;;0.57;0.50;;;25.50;57.40;;;;;;5074973;28;20436;-80
2022/07/16 09:50:48;;;;;;;0.82;0.50;;;25.80;56.30;;;;;;5077192;28;20590;-79
2022/07/16 09:53:19;;;;;;;4.20;1.08;;;26.20;54.90;;;;;;5078815;28;20044;-82
2022/07/16 09:56:00;;;;;;;0.47;0.47;;;25.90;53.20;;;;;;5078797;28;20024;-78
2022/07/16 09:58:26;;;;;;;0.57;0.57;;;25.60;54.90;;;;;;5078905;28;20035;-80
2022/07/16 10:00:52;;;;;;;5.82;0.98;;;25.50;53.80;;;;;;5078630;28;20032;-80
2022/07/16 10:03:19;;;;;;;0.52;0.52;;;25.60;54.20;;;;;;5096769;28;20023;-77
2022/07/16 10:05:45;;;;;;;0.45;0.45;;;25.10;54.00;;;;;;5078499;28;20078;-77
2022/07/16 10:08:11;;;;;;;0.43;0.43;;;25.60;53.60;;;;;;5078694;28;20050;-80
2022/07/16 10:10:36;;;;;;;1.90;0.68;;;25.90;53.80;;;;;;5078724;28;20028;-76
2022/07/16 10:13:02;;;;;;;1.60;0.57;;;26.00;54.70;;;;;;5096698;28;20025;-79
2022/07/16 10:15:28;;;;;;;0.63;0.52;;;26.20;55.00;;;;;;5096666;28;20112;-80
2022/07/16 10:17:54;;;;;;;0.73;0.73;;;26.30;52.40;;;;;;5078447;28;20111;-81
2022/07/16 10:20:20;;;;;;;0.73;0.73;;;26.20;52.90;;;;;;5096281;28;20032;-76
2022/07/16 10:22:48;;;;;;;0.63;0.57;;;26.60;51.80;;;;;;5078179;28;20028;-76
2022/07/16 10:25:17;;;;;;;0.43;0.43;;;26.70;50.80;;;;;;5078030;28;20568;-76
2022/07/16 10:27:44;;;;;;;0.50;0.50;;;26.30;50.80;;;;;;5096203;28;20039;-75
2022/07/16 10:30:09;;;;;;;0.50;0.50;;;26.10;52.40;;;;;;5095986;28;20473;-75
2022/07/16 10:33:00;;;;;;;0.95;0.65;;;26.20;51.90;;;;;;5096278;28;20020;-77
2022/07/16 10:35:50;;;;;;;1.52;0.60;;;26.60;51.50;;;;;;5096248;28;20020;-77
2022/07/16 10:38:25;;;;;;;0.35;0.35;;;27.00;51.50;;;;;;5078200;28;20455;-78
2022/07/16 10:41:13;;;;;;;3.53;1.58;;;27.30;51.20;;;;;;5077680;28;20042;-81
2022/07/16 10:43:40;;;;;;;5.45;1.30;;;27.40;51.80;;;;;;5097085;28;20017;-83
2022/07/16 10:46:08;;;;;;;0.20;0.20;;;27.20;48.70;;;;;;5078247;28;20039;-80
2022/07/16 10:48:36;;;;;;;0.95;0.60;;;26.40;49.10;;;;;;5077772;28;20103;-75
2022/07/16 10:51:25;;;;;;;0.20;0.20;;;26.50;50.20;;;;;;5095921;28;20051;-76
2022/07/16 10:54:02;;;;;;;0.15;0.15;;;26.90;48.90;;;;;;5074112;28;20049;-77
2022/07/16 10:56:47;;;;;;;0.77;0.68;;;26.90;49.10;;;;;;5075506;28;20020;-75
2022/07/16 10:59:16;;;;;;;0.57;0.57;;;27.30;51.50;;;;;;5075357;28;20024;-81
2022/07/16 11:01:46;;;;;;;0.55;0.52;;;27.40;48.40;;;;;;5073221;28;20033;-79
2022/07/16 11:04:12;;;;;;;;;;;27.60;48.80;;;;;;5075912;28;20535;-76
2022/07/16 11:06:39;;;;;;;0.30;0.30;;;27.60;50.50;;;;;;5074192;28;19904;-78
2022/07/16 11:09:07;;;;;;;0.47;0.47;;;27.60;50.80;;;;;;5075221;28;20079;-78
2022/07/16 11:11:38;;;;;;;1.70;1.38;;;27.90;48.60;;;;;;5075239;28;20059;-76
2022/07/16 11:14:05;;;;;;;0.40;0.40;;;28.80;48.00;;;;;;5073785;28;20060;-75
2022/07/16 11:16:31;;;;;;;0.77;0.45;;;29.30;48.50;;;;;;5074758;28;20043;-76
2022/07/16 11:19:04;;;;;;;1.35;0.40;;;29.00;45.50;;;;;;5073630;28;20451;-77
2022/07/16 11:21:31;;;;;;;0.30;0.30;;;28.80;47.30;;;;;;5069399;28;20028;-76
2022/07/16 11:23:59;;;;;;;0.73;0.73;;;29.30;47.70;;;;;;5074617;28;20021;-76
2022/07/16 11:26:28;;;;;;;1.55;0.73;;;29.80;46.00;;;;;;5075134;28;20032;-77
2022/07/16 11:28:55;;;;;;;1.52;0.95;;;29.90;46.50;;;;;;5074065;28;20025;-75
2022/07/16 11:31:38;;;;;;;3.05;1.48;;;29.30;45.90;;;;;;5073779;28;20086;-76
2022/07/16 11:34:06;;;;;;;0.85;0.82;;;29.10;46.80;;;;;;5073365;28;20089;-76
2022/07/16 11:36:34;;;;;;;0.40;0.40;;;29.10;46.40;;;;;;5074605;28;20528;-75
2022/07/16 11:39:15;;;;;;;1.08;1.00;;;29.20;44.90;;;;;;5073213;28;20036;-76
2022/07/16 11:41:44;;;;;;;0.35;0.35;;;29.40;43.80;;;;;;5074772;28;20085;-76
2022/07/16 11:44:12;;;;;;;1.60;0.63;;;29.70;43.80;;;;;;5074533;28;20154;-76
2022/07/16 11:46:59;;;;;;;0.47;0.40;;;30.00;43.10;;;;;;5073202;28;20029;-78
2022/07/16 11:49:28;;;;;;;0.20;0.20;;;29.40;43.70;;;;;;5073516;28;20487;-82
2022/07/16 11:51:59;;;;;;;0.85;0.85;;;29.60;43.10;;;;;;5074633;28;20481;-78
2022/07/16 11:54:29;;;;;;;0.25;0.25;;;29.40;43.70;;;;;;5094492;28;20044;-76
2022/07/16 11:56:56;;;;;;;0.50;0.50;;;29.80;44.30;;;;;;5094476;28;20024;-76
2022/07/16 11:59:32;;;;;;;0.40;0.30;;;30.10;41.90;;;;;;5094465;28;20060;-77
2022/07/16 12:02:09;;;;;;;0.47;0.32;;;30.70;42.20;;;;;;5094527;28;20525;-76
2022/07/16 12:04:41;;;;;;;0.45;0.45;;;31.00;43.30;;;;;;5076268;28;20024;-77
2022/07/16 12:07:16;;;;;;;1.05;0.43;;;30.10;41.50;;;;;;5094679;28;20052;-85
2022/07/16 12:09:47;;;;;;;0.52;0.32;;;29.90;40.70;;;;;;5094898;28;20026;-77
2022/07/16 12:12:15;;;;;;;4.78;1.63;;;30.10;42.60;;;;;;5094182;28;20023;-76
2022/07/16 12:15:02;;;;;;;0.30;0.30;;;30.30;42.00;;;;;;5094044;28;20024;-76
2022/07/16 12:17:31;;;;;;;0.77;0.60;;;30.40;41.30;;;;;;5094268;28;20042;-77
2022/07/16 12:20:13;;;;;;;1.10;0.70;;;30.20;42.50;;;;;;5094160;28;20028;-78
2022/07/16 12:22:45;;;;;;;0.77;0.77;;;30.10;43.20;;;;;;5094353;28;20051;-77
2022/07/16 12:25:21;;;;;;;0.35;0.35;;;30.20;44.60;;;;;;5075908;28;20030;-78
2022/07/16 12:27:49;;;;;;;0.32;0.32;;;30.90;42.40;;;;;;5075744;28;20016;-77
2022/07/16 12:30:15;;;;;;;0.37;0.30;;;31.60;40.70;;;;;;5093937;28;20035;-80
2022/07/16 12:32:52;;;;;;;1.17;0.50;;;30.90;40.10;;;;;;5076017;28;20423;-76
2022/07/16 12:35:37;;;;;;;0.73;0.40;;;30.30;41.30;;;;;;5094348;28;20054;-76
2022/07/16 12:38:04;;;;;;;1.00;0.30;;;30.00;42.40;;;;;;5093972;28;20099;-81
2022/07/16 12:40:31;;;;;;;0.22;0.22;;;30.20;41.00;;;;;;5093702;28;20480;-75
2022/07/16 12:43:00;;;;;;;1.75;0.40;;;30.80;40.00;;;;;;5093603;28;20419;-79
2022/07/16 12:45:27;;;;;;;1.73;0.43;;;31.20;39.40;;;;;;5093583;28;20031;-76
2022/07/16 12:47:53;;;;;;;0.75;0.75;;;32.10;40.70;;;;;;5075312;28;20073;-79
2022/07/16 12:50:19;;;;;;;0.30;0.30;;;31.90;38.60;;;;;;5093672;28;20024;-79
2022/07/16 12:52:44;;;;;;;0.43;0.43;;;31.70;41.30;;;;;;5093497;28;20394;-74
2022/07/16 13:00:39;;;;;;;3.03;2.78;;;31.10;40.50;;;;;;5093017;28;20042;-77
2022/07/16 13:03:07;;;;;;;2.88;1.33;;;30.70;41.00;;;;;;5092792;28;20020;-78
2022/07/16 13:05:33;;;;;;;0.68;0.68;;;30.80;41.00;;;;;;5074545;28;20380;-74
2022/07/16 13:07:58;;;;;;;1.30;0.30;;;30.90;42.80;;;;;;5092898;28;20020;-76
2022/07/16 13:10:24;;;;;;;0.35;0.35;;;31.40;39.50;;;;;;5093011;28;20032;-76